Time;durP1;ratioP1;P1;durP2;ratioP2;P2;SDS_P1;SDS_P2;PMS_P1;PMS_P2;Temp;Humidity;BMP_temperature;BMP_pressure;BME280_temperature;BME280_humidity;BME280_pressure;Samples;Min_cycle;Max_cycle;Signal;HPM_P1;HPM_P2
2023/10/14 00:01:10;;;;;;;10.70;6.05;;;;;;;;;;5109470;28;20043;-53
2023/10/14 00:03:41;;;;;;;14.23;6.03;;;;;;;;;;5110399;28;20430;-50
2023/10/14 00:06:08;;;;;;;;;;;;;;;;;;5108885;28;20043;-55
2023/10/14 00:08:35;;;;;;;11.35;5.35;;;;;;;;;;5109315;28;20318;-52
2023/10/14 00:11:06;;;;;;;9.35;5.00;;;;;;;;;;5109846;28;20499;-56
2023/10/14 00:13:40;;;;;;;11.18;5.78;;;;;;;;;;5107248;28;20066;-55
2023/10/14 00:16:12;;;;;;;10.02;6.20;;;;;;;;;;5109520;28;20153;-53
2023/10/14 00:18:42;;;;;;;12.43;6.00;;;;;;;;;;5109065;28;20089;-55
2023/10/14 00:21:12;;;;;;;11.48;5.63;;;;;;;;;;5109689;28;20097;-62
2023/10/14 00:23:39;;;;;;;11.45;6.35;;;;;;;;;;5108569;28;20046;-54
2023/10/14 00:26:14;;;;;;;12.18;6.40;;;;;;;;;;5106127;28;20558;-52
2023/10/14 00:28:42;;;;;;;11.68;6.63;;;;;;;;;;5111344;28;20613;-51
2023/10/14 00:31:10;;;;;;;9.15;6.05;;;;;;;;;;5108333;28;20071;-56
2023/10/14 00:33:38;;;;;;;10.05;4.82;;;;;;;;;;5111621;28;20096;-60
2023/10/14 00:36:10;;;;;;;8.68;4.78;;;;;;;;;;5111067;28;20347;-51
2023/10/14 00:38:38;;;;;;;10.23;5.40;;;;;;;;;;5108862;28;20048;-65
2023/10/14 00:41:08;;;;;;;15.02;6.45;;;;;;;;;;5109620;28;20040;-51
2023/10/14 00:43:36;;;;;;;13.45;5.72;;;;;;;;;;5108129;28;20044;-55
2023/10/14 00:46:10;;;;;;;13.50;5.80;;;;;;;;;;5110646;28;20051;-53
2023/10/14 00:48:40;;;;;;;8.32;4.55;;;;;;;;;;5108940;28;20043;-54
2023/10/14 00:51:10;;;;;;;11.60;5.82;;;;;;;;;;5101089;28;20180;-51
2023/10/14 00:53:39;;;;;;;9.95;5.15;;;;;;;;;;5106215;28;20051;-51
2023/10/14 00:56:10;;;;;;;11.48;5.80;;;;;;;;;;5109084;28;20044;-60
2023/10/14 00:58:43;;;;;;;8.07;5.28;;;;;;;;;;5110648;28;20051;-50
2023/10/14 01:01:10;;;;;;;8.82;4.90;;;;;;;;;;5109944;28;20067;-56
2023/10/14 01:03:37;;;;;;;12.25;5.55;;;;;;;;;;5110242;28;20049;-51
2023/10/14 01:06:20;;;;;;;8.95;5.38;;;;;;;;;;5109825;28;20087;-52
2023/10/14 01:08:50;;;;;;;9.40;5.03;;;;;;;;;;5110348;28;20155;-55
2023/10/14 01:11:17;;;;;;;8.25;5.32;;;;;;;;;;5109697;28;20126;-53
2023/10/14 01:13:45;;;;;;;10.77;5.65;;;;;;;;;;5107535;28;20483;-54
2023/10/14 01:16:15;;;;;;;10.15;5.10;;;;;;;;;;5110114;28;20052;-50
2023/10/14 01:18:44;;;;;;;10.65;4.95;;;;;;;;;;5106816;28;20044;-56
2023/10/14 01:21:11;;;;;;;10.60;4.80;;;;;;;;;;5106724;28;20301;-55
2023/10/14 01:23:41;;;;;;;10.27;5.15;;;;;;;;;;5109440;28;20044;-55
2023/10/14 01:26:09;;;;;;;11.40;5.07;;;;;;;;;;5108909;28;20563;-57
2023/10/14 01:28:43;;;;;;;9.27;4.78;;;;;;;;;;5106611;28;20498;-54
2023/10/14 01:31:40;;;;;;;8.73;4.60;;;;;;;;;;5110159;28;20089;-53
2023/10/14 01:34:07;;;;;;;7.13;4.43;;;;;;;;;;5107116;28;20054;-51
2023/10/14 01:36:37;;;;;;;13.05;5.30;;;;;;;;;;5109619;28;20057;-56
2023/10/14 01:39:11;;;;;;;11.93;5.35;;;;;;;;;;5106772;28;20047;-52
2023/10/14 01:41:37;;;;;;;9.80;5.47;;;;;;;;;;5108926;28;20047;-51
2023/10/14 01:44:06;;;;;;;13.02;6.07;;;;;;;;;;5110064;28;20487;-56
2023/10/14 01:46:34;;;;;;;9.55;5.35;;;;;;;;;;5110008;28;20438;-56
2023/10/14 01:49:10;;;;;;;9.30;5.35;;;;;;;;;;5110223;28;20434;-52
2023/10/14 01:51:37;;;;;;;10.18;5.38;;;;;;;;;;5106791;28;20130;-52
2023/10/14 01:54:06;;;;;;;10.27;4.97;;;;;;;;;;5104910;28;20080;-49
2023/10/14 01:56:34;;;;;;;11.20;5.30;;;;;;;;;;5106264;28;20059;-52
2023/10/14 01:59:02;;;;;;;11.35;5.32;;;;;;;;;;5109587;28;20439;-55
2023/10/14 02:01:34;;;;;;;12.23;5.97;;;;;;;;;;5106547;28;20112;-52
2023/10/14 02:04:02;;;;;;;10.23;5.22;;;;;;;;;;5104993;28;20063;-51
2023/10/14 02:06:30;;;;;;;9.88;5.43;;;;;;;;;;5110098;28;20043;-54
2023/10/14 02:09:00;;;;;;;11.77;5.60;;;;;;;;;;5106484;28;20047;-51
2023/10/14 02:11:33;;;;;;;10.63;5.40;;;;;;;;;;5108391;28;20479;-57
2023/10/14 02:14:06;;;;;;;9.63;5.05;;;;;;;;;;5107082;28;20126;-52
2023/10/14 02:16:40;;;;;;;10.98;5.18;;;;;;;;;;5107718;28;20101;-49
2023/10/14 02:19:17;;;;;;;10.43;5.22;;;;;;;;;;5107879;28;20252;-53
2023/10/14 02:21:44;;;;;;;9.98;4.28;;;;;;;;;;5109125;28;20047;-53
2023/10/14 02:24:11;;;;;;;10.38;4.55;;;;;;;;;;5109453;28;20407;-52
2023/10/14 02:26:38;;;;;;;9.50;4.97;;;;;;;;;;5109297;28;20040;-55
2023/10/14 02:29:10;;;;;;;9.90;4.60;;;;;;;;;;5108881;28;20043;-50
2023/10/14 02:31:37;;;;;;;8.98;4.57;;;;;;;;;;5109133;28;20039;-51
2023/10/14 02:34:06;;;;;;;8.05;4.30;;;;;;;;;;5109274;28;20046;-54
2023/10/14 02:36:35;;;;;;;11.30;4.65;;;;;;;;;;5106122;28;20063;-57
2023/10/14 02:39:11;;;;;;;12.63;5.03;;;;;;;;;;5105843;28;20047;-50
2023/10/14 02:41:40;;;;;;;12.15;5.13;;;;;;;;;;5106949;28;20089;-48
2023/10/14 02:44:19;;;;;;;9.80;4.25;;;;;;;;;;5106744;28;20565;-56
2023/10/14 02:46:46;;;;;;;7.93;3.80;;;;;;;;;;5108323;28;20046;-50
2023/10/14 02:49:15;;;;;;;8.30;4.20;;;;;;;;;;5107700;28;20044;-55
2023/10/14 02:51:43;;;;;;;8.50;4.05;;;;;;;;;;5108135;28;20487;-53
2023/10/14 02:54:15;;;;;;;6.63;4.25;;;;;;;;;;5106720;28;20126;-54
2023/10/14 02:56:56;;;;;;;8.13;4.07;;;;;;;;;;5107865;28;20044;-58
2023/10/14 02:59:36;;;;;;;12.45;3.85;;;;;;;;;;5104694;28;20051;-52
2023/10/14 03:02:16;;;;;;;9.13;3.83;;;;;;;;;;5107513;28;20100;-52
2023/10/14 03:04:55;;;;;;;8.20;3.83;;;;;;;;;;5109135;28;20163;-49
2023/10/14 03:07:25;;;;;;;7.60;4.40;;;;;;;;;;5103043;28;20044;-56
2023/10/14 03:09:52;;;;;;;8.45;4.05;;;;;;;;;;5107795;28;20043;-58
2023/10/14 03:12:19;;;;;;;8.48;3.97;;;;;;;;;;5108415;28;20042;-52
2023/10/14 03:14:49;;;;;;;7.90;4.13;;;;;;;;;;5107226;28;20058;-56
2023/10/14 03:17:24;;;;;;;8.48;4.07;;;;;;;;;;5106484;28;20062;-50
2023/10/14 03:19:53;;;;;;;9.13;5.13;;;;;;;;;;5108006;28;20463;-52
2023/10/14 03:22:23;;;;;;;9.13;5.20;;;;;;;;;;5108146;28;20043;-52
2023/10/14 03:24:51;;;;;;;8.57;4.40;;;;;;;;;;5106722;28;20043;-51
2023/10/14 03:27:20;;;;;;;9.25;4.55;;;;;;;;;;5112698;28;20043;-50
2023/10/14 03:29:54;;;;;;;10.27;4.32;;;;;;;;;;5108336;28;20441;-50
2023/10/14 03:32:28;;;;;;;11.85;4.32;;;;;;;;;;5112378;28;20051;-55
2023/10/14 03:34:55;;;;;;;7.18;4.20;;;;;;;;;;5112783;28;20414;-57
2023/10/14 03:37:25;;;;;;;11.02;4.45;;;;;;;;;;5109619;28;20048;-53
2023/10/14 03:40:34;;;;;;;8.65;4.80;;;;;;;;;;5112426;28;20070;-61
2023/10/14 03:42:51;;;;;;;8.35;4.15;;;;;;;;;;5110240;28;20048;-55
2023/10/14 03:45:22;;;;;;;8.02;3.90;;;;;;;;;;5113023;28;20051;-54
2023/10/14 03:47:52;;;;;;;11.32;4.38;;;;;;;;;;5107756;28;20077;-52
2023/10/14 03:50:23;;;;;;;9.27;4.32;;;;;;;;;;5112999;28;20096;-52
2023/10/14 03:52:52;;;;;;;9.02;4.10;;;;;;;;;;5109130;28;20051;-51
2023/10/14 03:55:24;;;;;;;8.98;4.40;;;;;;;;;;5111516;28;20040;-53
2023/10/14 03:57:53;;;;;;;7.00;3.60;;;;;;;;;;5112240;28;20054;-54
2023/10/14 04:00:36;;;;;;;8.05;3.83;;;;;;;;;;5106737;28;20074;-51
2023/10/14 04:03:06;;;;;;;8.15;4.05;;;;;;;;;;5106923;28;20390;-54
2023/10/14 04:05:37;;;;;;;8.37;4.10;;;;;;;;;;5110135;28;20039;-53
2023/10/14 04:08:06;;;;;;;7.53;3.60;;;;;;;;;;5109809;28;20075;-55
2023/10/14 04:10:36;;;;;;;6.40;3.80;;;;;;;;;;5111888;28;20515;-54
2023/10/14 04:13:12;;;;;;;13.07;5.55;;;;;;;;;;5112151;28;20135;-52
2023/10/14 04:15:47;;;;;;;9.82;4.30;;;;;;;;;;5110860;28;20513;-52
2023/10/14 04:18:15;;;;;;;8.48;4.40;;;;;;;;;;5108620;28;20048;-55
2023/10/14 04:20:46;;;;;;;10.63;4.60;;;;;;;;;;5112010;28;20478;-50
2023/10/14 04:23:26;;;;;;;7.97;4.25;;;;;;;;;;5109733;28;20036;-48
2023/10/14 04:26:02;;;;;;;8.50;4.28;;;;;;;;;;5107804;28;20089;-49
2023/10/14 04:28:31;;;;;;;9.73;4.25;;;;;;;;;;5111452;28;20179;-50
2023/10/14 04:31:06;;;;;;;9.40;4.32;;;;;;;;;;5111605;28;20051;-51
2023/10/14 04:33:44;;;;;;;9.55;3.83;;;;;;;;;;5109968;28;20044;-50
2023/10/14 04:36:36;;;;;;;9.10;4.10;;;;;;;;;;5104103;28;20063;-51
2023/10/14 04:39:13;;;;;;;8.35;4.50;;;;;;;;;;5111313;28;20047;-53
2023/10/14 04:41:55;;;;;;;7.80;4.25;;;;;;;;;;5108678;28;20157;-54
2023/10/14 04:44:23;;;;;;;11.88;4.38;;;;;;;;;;5110592;28;20555;-51
2023/10/14 04:47:01;;;;;;;7.30;4.22;;;;;;;;;;5111394;28;20043;-53
2023/10/14 04:49:36;;;;;;;8.07;5.30;;;;;;;;;;5107277;28;20288;-50
2023/10/14 04:52:05;;;;;;;7.85;4.20;;;;;;;;;;5111127;28;20048;-51
2023/10/14 04:54:34;;;;;;;9.13;4.03;;;;;;;;;;5111450;28;20054;-50
2023/10/14 04:57:19;;;;;;;8.48;4.28;;;;;;;;;;5111018;28;20046;-53
2023/10/14 04:59:46;;;;;;;7.65;4.00;;;;;;;;;;5110904;28;20044;-51
2023/10/14 05:02:20;;;;;;;7.28;4.32;;;;;;;;;;5110638;28;20150;-54
2023/10/14 05:04:48;;;;;;;8.50;4.20;;;;;;;;;;5108475;28;20039;-53
2023/10/14 05:07:15;;;;;;;7.35;4.55;;;;;;;;;;5110121;28;20130;-52
2023/10/14 05:09:49;;;;;;;7.13;4.00;;;;;;;;;;5110297;28;20047;-53
2023/10/14 05:12:24;;;;;;;6.85;4.25;;;;;;;;;;5107872;28;20059;-52
2023/10/14 05:14:51;;;;;;;9.73;4.85;;;;;;;;;;5109285;28;20050;-53
2023/10/14 05:17:25;;;;;;;9.45;4.70;;;;;;;;;;5107900;28;20078;-53
2023/10/14 05:19:57;;;;;;;9.05;4.47;;;;;;;;;;5109744;28;20250;-53
2023/10/14 05:22:25;;;;;;;9.07;5.38;;;;;;;;;;5110401;28;20074;-50
2023/10/14 05:24:54;;;;;;;10.68;4.97;;;;;;;;;;5110560;28;20040;-51
2023/10/14 05:27:35;;;;;;;12.65;4.75;;;;;;;;;;5110178;28;20055;-51
2023/10/14 05:30:06;;;;;;;8.52;5.05;;;;;;;;;;5110627;28;20085;-54
2023/10/14 05:32:36;;;;;;;9.98;5.15;;;;;;;;;;5110080;28;20051;-53
2023/10/14 05:35:09;;;;;;;9.37;4.83;;;;;;;;;;5110534;28;20126;-51
2023/10/14 05:37:36;;;;;;;9.52;5.50;;;;;;;;;;5110168;28;20052;-51
2023/10/14 05:40:13;;;;;;;11.30;5.10;;;;;;;;;;5109440;28;20173;-50
2023/10/14 05:42:43;;;;;;;14.02;6.00;;;;;;;;;;5110027;28;20047;-54
2023/10/14 05:45:11;;;;;;;11.38;6.13;;;;;;;;;;5110402;28;20044;-52
2023/10/14 05:47:42;;;;;;;8.73;5.68;;;;;;;;;;5109582;28;20036;-51
2023/10/14 05:50:14;;;;;;;12.27;6.07;;;;;;;;;;5106222;28;20051;-54
2023/10/14 05:52:43;;;;;;;9.57;5.82;;;;;;;;;;5109420;28;20048;-51
2023/10/14 05:55:10;;;;;;;8.85;5.13;;;;;;;;;;5107796;28;20047;-54
2023/10/14 05:57:39;;;;;;;11.77;5.65;;;;;;;;;;5109986;28;20051;-50
2023/10/14 06:00:20;;;;;;;8.82;5.20;;;;;;;;;;5103373;28;20499;-53
2023/10/14 06:02:51;;;;;;;10.23;5.55;;;;;;;;;;5107499;28;20050;-53
2023/10/14 06:05:19;;;;;;;10.65;6.07;;;;;;;;;;5110156;28;20480;-53
2023/10/14 06:07:46;;;;;;;10.95;5.72;;;;;;;;;;5108242;28;20134;-54
2023/10/14 06:10:20;;;;;;;11.77;6.15;;;;;;;;;;5108617;28;20035;-49
2023/10/14 06:12:51;;;;;;;12.23;6.20;;;;;;;;;;5106527;28;20044;-53
2023/10/14 06:15:21;;;;;;;10.60;5.95;;;;;;;;;;5107495;28;20491;-51
2023/10/14 06:17:50;;;;;;;9.17;5.50;;;;;;;;;;5108083;28;20134;-50
2023/10/14 06:20:20;;;;;;;12.25;5.80;;;;;;;;;;5107089;28;20344;-53
2023/10/14 06:22:47;;;;;;;9.40;5.90;;;;;;;;;;5109003;28;20139;-51
2023/10/14 06:25:16;;;;;;;10.55;6.05;;;;;;;;;;5109320;28;20047;-50
2023/10/14 06:27:45;;;;;;;11.30;5.75;;;;;;;;;;5105767;28;20051;-49
2023/10/14 06:30:20;;;;;;;8.52;5.13;;;;;;;;;;5106195;28;20043;-53
2023/10/14 06:32:49;;;;;;;9.85;5.47;;;;;;;;;;5109130;28;20054;-49
2023/10/14 06:35:17;;;;;;;9.63;5.80;;;;;;;;;;5101630;28;20138;-54
2023/10/14 06:37:45;;;;;;;8.57;5.60;;;;;;;;;;5107981;28;20048;-51
2023/10/14 06:40:14;;;;;;;8.93;4.82;;;;;;;;;;5108566;28;20071;-55
2023/10/14 06:42:43;;;;;;;10.50;5.38;;;;;;;;;;5109141;28;20475;-52
2023/10/14 06:45:13;;;;;;;13.57;5.40;;;;;;;;;;5106320;28;20449;-53
2023/10/14 06:47:45;;;;;;;10.75;5.97;;;;;;;;;;5098465;28;20571;-53
2023/10/14 06:50:13;;;;;;;10.02;5.63;;;;;;;;;;5108698;28;20638;-53
2023/10/14 06:52:40;;;;;;;9.75;5.40;;;;;;;;;;5108170;28;20043;-54
2023/10/14 06:55:07;;;;;;;10.98;5.65;;;;;;;;;;5107192;28;20050;-54
2023/10/14 06:57:34;;;;;;;8.90;5.38;;;;;;;;;;5106443;28;20051;-54
2023/10/14 07:00:07;;;;;;;10.38;4.68;;;;;;;;;;5108694;28;20051;-54
2023/10/14 07:02:35;;;;;;;9.43;5.35;;;;;;;;;;5107424;28;20040;-51
2023/10/14 07:05:03;;;;;;;8.80;5.38;;;;;;;;;;5106717;28;20134;-50
2023/10/14 07:07:32;;;;;;;12.52;4.82;;;;;;;;;;5105269;28;20507;-53
2023/10/14 07:09:59;;;;;;;8.60;4.45;;;;;;;;;;5107432;28;20069;-55
2023/10/14 07:12:26;;;;;;;10.93;4.82;;;;;;;;;;5107201;28;20453;-54
2023/10/14 07:14:53;;;;;;;10.00;4.50;;;;;;;;;;5107725;28;20040;-51
2023/10/14 07:17:22;;;;;;;10.13;5.07;;;;;;;;;;5107604;28;20059;-49
2023/10/14 07:19:49;;;;;;;9.25;4.57;;;;;;;;;;5107592;28;20044;-49
2023/10/14 07:22:20;;;;;;;7.63;4.55;;;;;;;;;;5107686;28;20138;-51
2023/10/14 07:24:48;;;;;;;7.82;4.60;;;;;;;;;;5104918;28;20043;-50
2023/10/14 07:27:17;;;;;;;11.63;4.13;;;;;;;;;;5108516;28;20130;-51
2023/10/14 07:29:45;;;;;;;8.40;4.65;;;;;;;;;;5108058;28;20131;-54
2023/10/14 07:32:15;;;;;;;7.95;4.07;;;;;;;;;;5107372;28;20058;-50
2023/10/14 07:34:42;;;;;;;7.57;4.32;;;;;;;;;;5106226;28;20622;-50
2023/10/14 07:37:09;;;;;;;9.13;3.90;;;;;;;;;;5102718;28;20043;-51
2023/10/14 07:39:35;;;;;;;10.35;4.00;;;;;;;;;;5107011;28;20048;-50
2023/10/14 07:42:09;;;;;;;6.70;3.90;;;;;;;;;;5097649;28;20044;-51
2023/10/14 07:44:36;;;;;;;7.32;4.07;;;;;;;;;;5107047;28;20040;-53
2023/10/14 07:47:05;;;;;;;8.52;3.63;;;;;;;;;;5106877;28;20410;-53
2023/10/14 07:49:33;;;;;;;10.13;4.30;;;;;;;;;;5103946;28;20483;-50
2023/10/14 07:52:00;;;;;;;7.90;4.32;;;;;;;;;;5106631;28;20048;-54
2023/10/14 07:54:29;;;;;;;7.40;3.97;;;;;;;;;;5107554;28;20126;-52
2023/10/14 07:56:56;;;;;;;9.52;3.90;;;;;;;;;;5105349;28;20116;-57
2023/10/14 07:59:24;;;;;;;8.75;4.57;;;;;;;;;;5103463;28;20043;-50
2023/10/14 08:01:52;;;;;;;10.05;4.97;;;;;;;;;;5104565;28;20052;-51
2023/10/14 08:04:23;;;;;;;7.13;3.97;;;;;;;;;;5105327;28;20046;-54
2023/10/14 08:06:50;;;;;;;9.85;4.22;;;;;;;;;;5105648;28;20040;-52
2023/10/14 08:09:24;;;;;;;8.05;4.15;;;;;;;;;;5106837;28;20083;-52
2023/10/14 08:11:51;;;;;;;9.07;4.60;;;;;;;;;;5107759;28;20039;-52
2023/10/14 08:14:18;;;;;;;9.88;4.93;;;;;;;;;;5108677;28;20040;-53
2023/10/14 08:16:47;;;;;;;12.88;5.15;;;;;;;;;;5109413;28;20040;-53
2023/10/14 08:19:14;;;;;;;9.18;4.45;;;;;;;;;;5111915;28;20046;-63
2023/10/14 08:21:41;;;;;;;8.95;4.50;;;;;;;;;;5111697;28;20383;-51
2023/10/14 08:24:08;;;;;;;8.52;5.35;;;;;;;;;;5111560;28;20133;-50
2023/10/14 08:26:35;;;;;;;8.02;4.10;;;;;;;;;;5111860;28;20137;-66
2023/10/14 08:29:02;;;;;;;8.57;4.43;;;;;;;;;;5111783;28;20043;-58
2023/10/14 08:31:32;;;;;;;9.27;4.40;;;;;;;;;;5111030;28;20067;-50
2023/10/14 08:34:01;;;;;;;6.30;3.58;;;;;;;;;;5104437;28;20049;-55
2023/10/14 08:36:28;;;;;;;6.65;4.40;;;;;;;;;;5108238;28;20082;-53
2023/10/14 08:38:54;;;;;;;9.27;4.30;;;;;;;;;;5109730;28;20134;-55
2023/10/14 08:41:22;;;;;;;7.82;4.85;;;;;;;;;;5110999;28;20134;-51
2023/10/14 08:43:50;;;;;;;8.93;4.55;;;;;;;;;;5110323;28;20069;-48
2023/10/14 08:46:23;;;;;;;11.02;5.30;;;;;;;;;;5108590;28;20079;-55
2023/10/14 08:48:52;;;;;;;8.95;4.10;;;;;;;;;;5105581;28;20423;-53
2023/10/14 08:51:22;;;;;;;10.02;4.88;;;;;;;;;;5108780;28;20048;-54
2023/10/14 08:53:53;;;;;;;9.88;4.90;;;;;;;;;;5107706;28;20047;-51
2023/10/14 08:56:22;;;;;;;11.98;5.00;;;;;;;;;;5110650;28;20074;-51
2023/10/14 08:58:49;;;;;;;9.95;4.90;;;;;;;;;;5107796;28;20134;-56
2023/10/14 09:01:18;;;;;;;10.65;5.57;;;;;;;;;;5107633;28;20788;-52
2023/10/14 09:03:46;;;;;;;9.88;4.82;;;;;;;;;;5110452;28;20052;-52
2023/10/14 09:06:13;;;;;;;14.02;5.75;;;;;;;;;;5109519;28;20564;-54
2023/10/14 09:08:42;;;;;;;10.63;4.90;;;;;;;;;;5111008;28;20040;-52
2023/10/14 09:11:25;;;;;;;9.45;5.57;;;;;;;;;;5111583;28;20039;-54
2023/10/14 09:14:01;;;;;;;13.25;5.95;;;;;;;;;;5108127;28;20051;-56
2023/10/14 09:16:32;;;;;;;11.55;5.82;;;;;;;;;;5109170;28;20071;-53
2023/10/14 09:18:59;;;;;;;11.02;5.97;;;;;;;;;;5106440;28;20127;-52
2023/10/14 09:21:26;;;;;;;10.15;5.43;;;;;;;;;;5111010;28;20047;-55
2023/10/14 09:23:54;;;;;;;9.52;5.75;;;;;;;;;;5109649;28;20127;-52
2023/10/14 09:26:21;;;;;;;12.85;6.38;;;;;;;;;;5110185;28;20047;-54
2023/10/14 09:28:48;;;;;;;11.98;6.25;;;;;;;;;;5109927;28;20043;-49
2023/10/14 09:31:15;;;;;;;11.48;5.25;;;;;;;;;;5109219;28;20142;-55
2023/10/14 09:33:43;;;;;;;12.82;5.93;;;;;;;;;;5106484;28;20035;-51
2023/10/14 09:36:14;;;;;;;11.27;5.60;;;;;;;;;;5109183;28;20127;-52
2023/10/14 09:38:41;;;;;;;12.02;5.70;;;;;;;;;;5109759;28;20051;-52
2023/10/14 09:41:14;;;;;;;14.25;5.95;;;;;;;;;;5107738;28;20139;-54
2023/10/14 09:43:42;;;;;;;10.73;5.75;;;;;;;;;;5107767;28;20096;-52
2023/10/14 09:46:11;;;;;;;9.73;5.25;;;;;;;;;;5109057;28;20135;-52
2023/10/14 09:48:43;;;;;;;12.80;5.97;;;;;;;;;;5108539;28;20476;-52
2023/10/14 09:51:12;;;;;;;11.35;4.95;;;;;;;;;;5108498;28;20047;-54
2023/10/14 09:53:39;;;;;;;12.68;5.65;;;;;;;;;;5108358;28;20505;-57
2023/10/14 09:56:07;;;;;;;10.93;4.95;;;;;;;;;;5107332;28;20602;-53
2023/10/14 09:58:36;;;;;;;10.43;5.47;;;;;;;;;;5108654;28;20468;-56
2023/10/14 10:01:05;;;;;;;12.35;5.10;;;;;;;;;;5107581;28;20052;-54
2023/10/14 10:03:37;;;;;;;9.68;5.40;;;;;;;;;;5107472;28;20048;-51
2023/10/14 10:06:14;;;;;;;11.05;6.15;;;;;;;;;;5106947;28;20047;-55
2023/10/14 10:08:59;;;;;;;7.80;4.38;;;;;;;;;;5108657;28;20079;-53
2023/10/14 10:11:29;;;;;;;10.38;5.45;;;;;;;;;;5108198;28;20503;-52
2023/10/14 10:14:00;;;;;;;9.48;5.45;;;;;;;;;;5110141;28;20490;-53
2023/10/14 10:16:31;;;;;;;10.80;5.90;;;;;;;;;;5107934;28;20055;-53
2023/10/14 10:18:59;;;;;;;10.13;5.35;;;;;;;;;;5107547;28;20043;-50
2023/10/14 10:21:29;;;;;;;10.82;6.28;;;;;;;;;;5107420;28;20052;-55
2023/10/14 10:24:17;;;;;;;8.60;5.50;;;;;;;;;;5106333;28;20138;-52
2023/10/14 10:27:05;;;;;;;11.68;5.22;;;;;;;;;;5106521;28;20138;-52
2023/10/14 10:29:34;;;;;;;9.13;5.22;;;;;;;;;;5106913;28;20134;-53
2023/10/14 10:32:06;;;;;;;7.80;4.75;;;;;;;;;;5105464;28;20596;-54
2023/10/14 10:34:34;;;;;;;9.57;5.18;;;;;;;;;;5107348;28;20059;-52
2023/10/14 10:37:03;;;;;;;12.30;5.65;;;;;;;;;;5104734;28;20043;-52
2023/10/14 10:39:31;;;;;;;8.43;4.68;;;;;;;;;;5108117;28;20138;-52
2023/10/14 10:41:58;;;;;;;11.70;5.10;;;;;;;;;;5106378;28;20048;-54
2023/10/14 10:44:26;;;;;;;8.43;5.25;;;;;;;;;;5105785;28;20126;-52
2023/10/14 10:46:57;;;;;;;8.50;4.80;;;;;;;;;;5107893;28;20039;-50
2023/10/14 10:49:59;;;;;;;12.07;5.28;;;;;;;;;;5108312;28;20050;-54
2023/10/14 10:52:27;;;;;;;9.07;4.72;;;;;;;;;;5015705;28;20079;-50
2023/10/14 10:54:55;;;;;;;9.45;5.13;;;;;;;;;;5018845;28;20124;-56
2023/10/14 10:57:22;;;;;;;8.95;4.78;;;;;;;;;;5057419;28;20054;-53
2023/10/14 10:59:49;;;;;;;8.93;5.47;;;;;;;;;;5104317;28;20047;-55
2023/10/14 11:02:19;;;;;;;8.65;4.70;;;;;;;;;;5106784;28;20461;-53
2023/10/14 11:04:48;;;;;;;9.23;5.13;;;;;;;;;;5105314;28;20051;-50
2023/10/14 11:07:15;;;;;;;10.65;4.82;;;;;;;;;;5107047;28;20143;-51
2023/10/14 11:09:41;;;;;;;11.70;5.65;;;;;;;;;;5106599;28;20039;-49
2023/10/14 11:12:09;;;;;;;9.48;4.35;;;;;;;;;;5104624;28;20493;-52
2023/10/14 11:14:36;;;;;;;7.60;4.82;;;;;;;;;;5107465;28;20054;-48
2023/10/14 11:17:04;;;;;;;11.85;5.28;;;;;;;;;;5106295;28;20044;-50
2023/10/14 11:19:33;;;;;;;9.18;4.72;;;;;;;;;;5107697;28;20395;-52
2023/10/14 11:22:02;;;;;;;9.82;4.85;;;;;;;;;;5107570;28;20130;-53
2023/10/14 11:24:31;;;;;;;10.65;5.65;;;;;;;;;;5106135;28;20083;-52
2023/10/14 11:26:59;;;;;;;7.35;4.25;;;;;;;;;;5106726;28;20059;-54
2023/10/14 11:29:26;;;;;;;9.55;4.70;;;;;;;;;;5107440;28;20054;-55
2023/10/14 11:31:54;;;;;;;9.57;4.72;;;;;;;;;;5103568;28;20044;-53
2023/10/14 11:34:21;;;;;;;9.98;4.18;;;;;;;;;;5108373;28;20044;-51
2023/10/14 11:36:49;;;;;;;9.70;4.90;;;;;;;;;;5107951;28;20092;-51
2023/10/14 11:39:18;;;;;;;6.88;4.55;;;;;;;;;;5103594;28;20058;-54
2023/10/14 11:41:45;;;;;;;10.00;4.45;;;;;;;;;;5105666;28;20495;-48
2023/10/14 11:44:17;;;;;;;8.43;4.40;;;;;;;;;;5106162;28;20043;-52
2023/10/14 11:46:44;;;;;;;7.68;4.65;;;;;;;;;;5103040;28;20047;-53
2023/10/14 11:49:11;;;;;;;7.95;4.20;;;;;;;;;;5108248;28;20039;-51
2023/10/14 11:51:41;;;;;;;6.25;4.10;;;;;;;;;;5108970;28;20420;-51
2023/10/14 11:54:11;;;;;;;7.97;4.05;;;;;;;;;;5112491;28;20047;-52
2023/10/14 11:56:38;;;;;;;9.38;4.00;;;;;;;;;;5108527;28;20243;-51
2023/10/14 11:59:05;;;;;;;9.10;3.80;;;;;;;;;;5111858;28;20079;-55
2023/10/14 12:01:34;;;;;;;7.70;4.25;;;;;;;;;;5110434;28;20078;-54
2023/10/14 12:04:01;;;;;;;8.60;4.03;;;;;;;;;;5106294;28;20154;-54
2023/10/14 12:06:30;;;;;;;8.32;3.90;;;;;;;;;;5109439;28;20449;-53
2023/10/14 12:08:56;;;;;;;9.73;4.05;;;;;;;;;;5108270;28;20077;-53
2023/10/14 12:11:26;;;;;;;7.53;3.63;;;;;;;;;;5110617;28;20470;-50
2023/10/14 12:13:53;;;;;;;8.02;4.03;;;;;;;;;;5110352;28;20491;-50
2023/10/14 12:16:21;;;;;;;7.82;3.47;;;;;;;;;;5111760;28;20048;-52
2023/10/14 12:18:54;;;;;;;7.53;3.55;;;;;;;;;;5111215;28;20043;-53
2023/10/14 12:21:20;;;;;;;8.98;3.35;;;;;;;;;;5108581;28;20044;-52
2023/10/14 12:23:47;;;;;;;6.75;3.70;;;;;;;;;;5111602;28;20131;-53
2023/10/14 12:26:14;;;;;;;6.18;3.75;;;;;;;;;;5108726;28;20047;-54
2023/10/14 12:28:43;;;;;;;7.32;3.33;;;;;;;;;;5105015;28;20092;-51
2023/10/14 12:31:12;;;;;;;8.13;3.47;;;;;;;;;;5108078;28;20052;-52
2023/10/14 12:33:39;;;;;;;7.22;3.40;;;;;;;;;;5108552;28;20051;-53
2023/10/14 12:36:10;;;;;;;7.88;3.38;;;;;;;;;;5110760;28;20039;-55
2023/10/14 12:38:38;;;;;;;14.20;3.78;;;;;;;;;;5110065;28;20052;-53
2023/10/14 12:41:07;;;;;;;7.35;4.05;;;;;;;;;;5108906;28;20104;-52
2023/10/14 12:43:36;;;;;;;6.47;3.47;;;;;;;;;;5106610;28;20050;-51
2023/10/14 12:46:14;;;;;;;7.25;3.40;;;;;;;;;;5107068;28;20048;-54
2023/10/14 12:48:42;;;;;;;7.80;3.85;;;;;;;;;;5105045;28;20058;-56
2023/10/14 12:51:11;;;;;;;8.30;3.58;;;;;;;;;;5101999;28;20133;-60
2023/10/14 12:53:38;;;;;;;6.32;3.58;;;;;;;;;;5105168;28;20039;-51
2023/10/14 12:56:08;;;;;;;8.25;4.15;;;;;;;;;;5106950;28;20407;-49
2023/10/14 12:58:37;;;;;;;6.75;3.50;;;;;;;;;;5108206;28;21339;-59
2023/10/14 13:01:13;;;;;;;9.90;3.95;;;;;;;;;;5107920;28;20051;-53
2023/10/14 13:03:42;;;;;;;7.40;3.90;;;;;;;;;;5106504;28;20491;-55
2023/10/14 13:06:08;;;;;;;8.13;4.13;;;;;;;;;;5106840;28;20040;-50
2023/10/14 13:08:36;;;;;;;6.90;3.65;;;;;;;;;;5108977;28;20514;-50
2023/10/14 13:11:03;;;;;;;6.45;3.60;;;;;;;;;;5108124;28;20518;-51
2023/10/14 13:13:30;;;;;;;8.60;4.60;;;;;;;;;;5106004;28;20251;-49
2023/10/14 13:15:56;;;;;;;9.43;4.28;;;;;;;;;;5106627;28;20135;-49
2023/10/14 13:18:25;;;;;;;8.75;4.38;;;;;;;;;;5110660;28;20167;-50
2023/10/14 13:20:52;;;;;;;7.53;4.95;;;;;;;;;;5102195;28;20055;-48
2023/10/14 13:23:19;;;;;;;10.57;4.70;;;;;;;;;;5105698;28;20663;-49
2023/10/14 13:25:46;;;;;;;7.32;3.85;;;;;;;;;;5106371;28;20051;-51
2023/10/14 13:28:13;;;;;;;9.45;3.67;;;;;;;;;;5105944;28;20047;-50
2023/10/14 13:30:45;;;;;;;8.65;4.40;;;;;;;;;;5102664;28;20055;-50
2023/10/14 13:33:12;;;;;;;7.30;4.80;;;;;;;;;;5106791;28;20036;-51
2023/10/14 13:35:42;;;;;;;8.60;3.83;;;;;;;;;;5105003;28;20135;-49
2023/10/14 13:38:10;;;;;;;7.00;3.78;;;;;;;;;;5107117;28;20036;-53
2023/10/14 13:40:37;;;;;;;8.55;4.57;;;;;;;;;;5110180;28;21005;-53
2023/10/14 13:43:05;;;;;;;7.30;3.45;;;;;;;;;;5108746;28;20051;-54
2023/10/14 13:45:32;;;;;;;7.93;3.53;;;;;;;;;;5106171;28;20052;-52
2023/10/14 13:48:06;;;;;;;8.15;3.90;;;;;;;;;;5107852;28;20506;-48
2023/10/14 13:50:37;;;;;;;6.07;3.47;;;;;;;;;;5108059;28;20039;-48
2023/10/14 13:53:09;;;;;;;4.97;2.85;;;;;;;;;;5104220;28;20075;-53
2023/10/14 13:55:37;;;;;;;8.05;3.47;;;;;;;;;;5107740;28;20044;-49
2023/10/14 13:58:06;;;;;;;6.65;3.53;;;;;;;;;;5102822;28;20135;-50
2023/10/14 14:00:40;;;;;;;6.72;3.50;;;;;;;;;;5107184;28;20074;-49
2023/10/14 14:03:10;;;;;;;6.90;3.30;;;;;;;;;;5106907;28;20054;-49
2023/10/14 14:05:38;;;;;;;4.75;2.25;;;;;;;;;;5108161;28;20408;-49
2023/10/14 14:08:08;;;;;;;7.15;2.10;;;;;;;;;;5108108;28;20596;-48
2023/10/14 14:10:35;;;;;;;3.35;1.80;;;;;;;;;;5107419;28;20050;-49
2023/10/14 14:13:02;;;;;;;3.45;1.63;;;;;;;;;;5105412;28;20052;-48
2023/10/14 14:15:31;;;;;;;3.83;1.60;;;;;;;;;;5102966;28;20219;-49
2023/10/14 14:17:58;;;;;;;4.85;2.25;;;;;;;;;;5106646;28;20040;-50
2023/10/14 14:20:25;;;;;;;3.90;1.90;;;;;;;;;;5107979;28;20052;-49
2023/10/14 14:22:55;;;;;;;3.53;1.48;;;;;;;;;;5108212;28;20052;-50
2023/10/14 14:25:24;;;;;;;3.13;1.17;;;;;;;;;;5104997;28;20048;-51
2023/10/14 14:27:52;;;;;;;3.70;1.30;;;;;;;;;;5106220;28;20125;-48
2023/10/14 14:30:19;;;;;;;2.10;0.82;;;;;;;;;;5108397;28;20044;-49
2023/10/14 14:32:45;;;;;;;2.35;1.45;;;;;;;;;;5106130;28;20065;-51
2023/10/14 14:35:12;;;;;;;2.10;0.60;;;;;;;;;;5104478;28;20047;-50
2023/10/14 14:37:40;;;;;;;2.10;0.70;;;;;;;;;;5109105;28;20047;-51
2023/10/14 14:40:13;;;;;;;4.50;0.90;;;;;;;;;;5104923;28;20052;-50
2023/10/14 14:42:41;;;;;;;2.65;0.68;;;;;;;;;;5106916;28;20040;-51
2023/10/14 14:45:10;;;;;;;2.38;0.93;;;;;;;;;;5106677;28;20057;-50
2023/10/14 14:47:38;;;;;;;2.65;1.00;;;;;;;;;;5108344;28;20495;-52
2023/10/14 14:50:06;;;;;;;2.33;0.80;;;;;;;;;;5106114;28;20052;-52
2023/10/14 14:52:33;;;;;;;1.52;0.80;;;;;;;;;;5107309;28;20533;-52
2023/10/14 14:55:00;;;;;;;1.00;0.60;;;;;;;;;;5108361;28;20050;-53